Relevés horaires Chievres (Belgique)


Relevés horaires à Chievres - Mardi 22 Mars 2022
Heure UTC1 Température [°C] Vent [km/h] Hum. [%] Pres.4 [hPa] Visi. [Km] Nébu. [octa] Préc.5 [mm] Cond.
2m. Res. Ros. Dir.2 Vit. Moy. Raf.3
23:00 7.1 7.1 2.6 NNO 1.9 -- 1.9 73 1030(0.0/3h) 15 -- -- --
22:00 9.4 9.4 1.5 NNO 1.9 -- 3.7 58 1029.9(0.6/3h) 15 -- -- --
21:00 10.2 10.2 3.2 NNO 1.9 -- 7.4 62 1029.9(1.1/3h) 17 -- -- --
20:00 13.6 13.6 2.1 SE 3.7 -- 7.4 46 1029.7(1.3/3h) 19 -- -- --
19:00 11.6 11.6 4.2 E 3.7 -- 3.7 60 1029.2(0.6/3h) 19 -- -- --
18:00 14.6 14.6 3.7 E 3.7 -- 9.3 48 1028.5(-0.4/3h) 20 -- -- --
17:00 16.1 16.1 5.5 E 3.7 -- 5.6 49 1028.4(-0.8/3h) 19 -- -- --
16:00 17.2 17.2 5.4 NNO 1.9 -- 3.7 46 1028.4(-1.3/3h) 18 -- -- --
15:00 17.2 17.2 5.7 NNO 1.9 -- 9.3 47 1028.9(-1.3/3h) 18 -- -- --
14:00 17.6 17.6 3.1 E 5.6 -- 9.3 38 1029.2(-1.5/3h) 20 -- -- --
13:00 18.1 18.1 4.1 E 3.7 -- 7.4 39 1029.7(-1.0/3h) 19 -- -- --
12:00 17.7 17.7 4.0 NNO 3.7 -- 7.4 40 1030.2(-0.4/3h) 17 -- -- --
11:00 16.2 16.2 4.5 NNO 1.9 -- 5.6 46 1030.7(0.0/3h) 19 -- -- --
10:00 14.6 14.6 4.3 NNO 3.7 -- 7.4 50 1030.9(0.3/3h) 18 -- -- --
09:00 12.8 12.8 3.1 SSE 3.7 -- 7.4 52 1031(0.7/3h) 20 -- -- --
08:00 10.8 10.8 3.6 ESE 3.7 -- 5.6 61 1030.9(0.8/3h) 20 -- -- --
07:00 8.3 8.3 3.1 NNO 1.9 -- 5.6 70 1030.7(0.7/3h) 19 -- -- --
06:00 6.9 6.9 2.2 NNO 1.9 -- 11.1 72 1030.4(0.5/3h) 20 -- -- --
05:00 6.8 6.8 2.3 SE 3.7 -- 7.4 73 1030.2(0.2/3h) 20 -- -- --
04:00 8.6 8.6 2.9 SSE 3.7 -- 11.1 67 1029.9(0.0/3h) 20 -- -- --
03:00 9.4 8.4 3.4 SE 7.4 -- 11.1 66 1029.7(0.0/3h) 20 -- -- --
02:00 5.6 5.6 3.5 NNO 1.9 -- 3.7 86 1029.9(0.0/3h) 11 -- -- --
01:00 5.6 5.6 3.6 ESE 3.7 -- 3.7 87 1030(0.0/3h) 11 -- -- --
00:00 6.4 6.4 4.1 NNO 1.9 -- 3.7 85 1029.9(0.0/3h) 10 -- -- --

1 Coordinated Universal Time. Actuellement il est 19:00 locale et 18:00 UTC.

2 Le vent souffle depuis la direction indiquée vers la direction oposée.

3 Les rafales max. sont disponible 40 min après l'heure du relevé.

4 Pour les stations d'altitude (plus de 600m) le géopotentiel du niveau le plus proche de la pression obligatoire est indiqué.

5 Les stations disposant d'un diffuseur peuvent indiquer "trace". Cela signifie que des précipitations ont touchés le sol mais que la quantité est inférieure à 0.1 mm.

Récapitulatif de la journée
Température [°C] Vent [km/h] Ensoleillement4 [h] Precipitations totale5 [mm] Pression [Hpa]
Min1 Max.2 Moy.3 Max. Min Max.
5.2 18.8 0 11.1 0 h 0 min 0 1028.4 1031.0

1 Température minimale relevée entre 18:00 UTC la veille et 18:00 UTC le jour donné.

2 Température maximale relevée entre 06:00 UTC le jour donné et 06:00 UTC le lendemain.

3 Vent moyen de la journée basé sur les relevés horaires.

4 Ensoleillement en heures relevé entre 06:00 UTC la veille et 06:00 UTC le jour donné.

5 Précipitations totales tombées entre 06:00 UTC la jour donné et 06:00 UTC le lendemain.

Graphiques horaires